sensor_id;sensor_type;location;lat;lon;timestamp;pressure;altitude;pressure_sealevel;temperature;humidity
66945;BME280;53853;51.982;5.928;2023-06-22T00:01:55;101847.44;;;20.62;64.78
66945;BME280;53853;51.982;5.928;2023-06-22T00:04:25;101843.25;;;20.60;64.65
66945;BME280;53853;51.982;5.928;2023-06-22T00:06:55;101843.44;;;20.58;64.36
66945;BME280;53853;51.982;5.928;2023-06-22T00:09:25;101846.53;;;20.55;64.06
66945;BME280;53853;51.982;5.928;2023-06-22T00:11:54;101849.91;;;20.57;64.12
66945;BME280;53853;51.982;5.928;2023-06-22T00:14:24;101843.19;;;20.53;64.00
66945;BME280;53853;51.982;5.928;2023-06-22T00:16:57;101844.19;;;20.52;63.95
66945;BME280;53853;51.982;5.928;2023-06-22T00:19:26;101834.59;;;20.50;63.89
66945;BME280;53853;51.982;5.928;2023-06-22T00:21:56;101837.50;;;20.48;63.94
66945;BME280;53853;51.982;5.928;2023-06-22T00:24:26;101832.47;;;20.45;63.81
66945;BME280;53853;51.982;5.928;2023-06-22T00:26:56;101836.00;;;20.45;64.02
66945;BME280;53853;51.982;5.928;2023-06-22T00:29:26;101837.25;;;20.43;64.24
66945;BME280;53853;51.982;5.928;2023-06-22T00:31:59;101839.09;;;20.42;64.13
66945;BME280;53853;51.982;5.928;2023-06-22T00:34:30;101831.16;;;20.41;64.13
66945;BME280;53853;51.982;5.928;2023-06-22T00:37:00;101825.28;;;20.37;64.25
66945;BME280;53853;51.982;5.928;2023-06-22T00:39:30;101813.16;;;20.33;64.25
66945;BME280;53853;51.982;5.928;2023-06-22T00:42:00;101831.66;;;20.30;64.91
66945;BME280;53853;51.982;5.928;2023-06-22T00:44:31;101825.78;;;20.26;65.10
66945;BME280;53853;51.982;5.928;2023-06-22T00:47:04;101825.97;;;20.24;65.18
66945;BME280;53853;51.982;5.928;2023-06-22T00:49:34;101822.63;;;20.22;65.56
66945;BME280;53853;51.982;5.928;2023-06-22T00:52:06;101818.44;;;20.20;65.36
66945;BME280;53853;51.982;5.928;2023-06-22T00:54:41;101821.50;;;20.17;65.27
66945;BME280;53853;51.982;5.928;2023-06-22T00:57:13;101827.13;;;20.15;65.80
66945;BME280;53853;51.982;5.928;2023-06-22T00:59:43;101832.91;;;20.12;65.73
66945;BME280;53853;51.982;5.928;2023-06-22T01:02:15;101833.09;;;20.11;65.76
66945;BME280;53853;51.982;5.928;2023-06-22T01:04:45;101830.75;;;20.07;65.63
66945;BME280;53853;51.982;5.928;2023-06-22T01:07:20;101839.94;;;20.06;65.40
66945;BME280;53853;51.982;5.928;2023-06-22T01:09:57;101839.44;;;20.03;65.90
66945;BME280;53853;51.982;5.928;2023-06-22T01:12:32;101836.09;;;20.01;65.73
66945;BME280;53853;51.982;5.928;2023-06-22T01:15:08;101833.94;;;19.96;66.17
66945;BME280;53853;51.982;5.928;2023-06-22T01:17:44;101828.91;;;19.93;66.68
66945;BME280;53853;51.982;5.928;2023-06-22T01:20:16;101834.69;;;19.90;66.50
66945;BME280;53853;51.982;5.928;2023-06-22T01:22:54;101824.25;;;19.87;66.88
66945;BME280;53853;51.982;5.928;2023-06-22T01:25:36;101823.78;;;19.83;66.59
66945;BME280;53853;51.982;5.928;2023-06-22T01:28:24;101828.75;;;19.80;67.14
66945;BME280;53853;51.982;5.928;2023-06-22T01:30:58;101817.44;;;19.76;67.19
66945;BME280;53853;51.982;5.928;2023-06-22T01:33:35;101817.63;;;19.75;67.16
66945;BME280;53853;51.982;5.928;2023-06-22T01:36:07;101817.81;;;19.73;66.98
66945;BME280;53853;51.982;5.928;2023-06-22T01:38:39;101812.78;;;19.70;67.11
66945;BME280;53853;51.982;5.928;2023-06-22T01:41:11;101811.91;;;19.69;66.85
66945;BME280;53853;51.982;5.928;2023-06-22T01:43:41;101811.25;;;19.67;66.84
66945;BME280;53853;51.982;5.928;2023-06-22T01:46:15;101811.63;;;19.64;67.22
66945;BME280;53853;51.982;5.928;2023-06-22T01:48:47;101803.06;;;19.61;67.16
66945;BME280;53853;51.982;5.928;2023-06-22T01:51:17;101809.50;;;19.60;66.93
66945;BME280;53853;51.982;5.928;2023-06-22T01:53:47;101801.75;;;19.57;66.87
66945;BME280;53853;51.982;5.928;2023-06-22T01:56:19;101796.34;;;19.57;67.04
66945;BME280;53853;51.982;5.928;2023-06-22T01:58:55;101796.53;;;19.55;66.83
66945;BME280;53853;51.982;5.928;2023-06-22T02:01:39;101799.41;;;19.53;66.93
66945;BME280;53853;51.982;5.928;2023-06-22T02:04:15;101795.88;;;19.53;66.86
66945;BME280;53853;51.982;5.928;2023-06-22T02:06:53;101801.47;;;19.51;67.04
66945;BME280;53853;51.982;5.928;2023-06-22T02:09:26;101802.47;;;19.50;67.08
66945;BME280;53853;51.982;5.928;2023-06-22T02:12:00;101805.38;;;19.49;67.38
66945;BME280;53853;51.982;5.928;2023-06-22T02:14:32;101811.63;;;19.49;67.44
66945;BME280;53853;51.982;5.928;2023-06-22T02:17:08;101808.94;;;19.49;67.75
66945;BME280;53853;51.982;5.928;2023-06-22T02:19:40;101813.47;;;19.49;67.92
66945;BME280;53853;51.982;5.928;2023-06-22T02:22:10;101809.13;;;19.48;67.88
66945;BME280;53853;51.982;5.928;2023-06-22T02:24:41;101813.03;;;19.45;68.12
66945;BME280;53853;51.982;5.928;2023-06-22T02:27:10;101812.38;;;19.43;68.01
66945;BME280;53853;51.982;5.928;2023-06-22T02:29:40;101801.56;;;19.43;68.04
66945;BME280;53853;51.982;5.928;2023-06-22T02:32:13;101797.16;;;19.42;67.73
66945;BME280;53853;51.982;5.928;2023-06-22T02:34:47;101797.34;;;19.41;67.88
66945;BME280;53853;51.982;5.928;2023-06-22T02:37:18;101794.84;;;19.39;67.86
66945;BME280;53853;51.982;5.928;2023-06-22T02:39:48;101782.34;;;19.38;67.92
66945;BME280;53853;51.982;5.928;2023-06-22T02:42:17;101781.88;;;19.34;68.04
66945;BME280;53853;51.982;5.928;2023-06-22T02:44:49;101782.06;;;19.33;67.84
66945;BME280;53853;51.982;5.928;2023-06-22T02:47:23;101789.72;;;19.29;68.23
66945;BME280;53853;51.982;5.928;2023-06-22T02:49:53;101786.34;;;19.27;68.31
66945;BME280;53853;51.982;5.928;2023-06-22T02:52:24;101789.25;;;19.26;68.46
66945;BME280;53853;51.982;5.928;2023-06-22T02:54:54;101796.66;;;19.24;68.69
66945;BME280;53853;51.982;5.928;2023-06-22T02:57:24;101794.16;;;19.22;68.73
66945;BME280;53853;51.982;5.928;2023-06-22T02:59:54;101788.75;;;19.22;68.61
66945;BME280;53853;51.982;5.928;2023-06-22T03:02:27;101790.63;;;19.22;68.72
66945;BME280;53853;51.982;5.928;2023-06-22T03:04:57;101782.69;;;19.20;69.12
66945;BME280;53853;51.982;5.928;2023-06-22T03:07:28;101785.22;;;19.22;68.76
66945;BME280;53853;51.982;5.928;2023-06-22T03:09:59;101778.13;;;19.21;68.69
66945;BME280;53853;51.982;5.928;2023-06-22T03:12:29;101773.75;;;19.19;69.13
66945;BME280;53853;51.982;5.928;2023-06-22T03:14:59;101775.81;;;19.17;69.21
66945;BME280;53853;51.982;5.928;2023-06-22T03:17:32;101769.56;;;19.17;69.18
66945;BME280;53853;51.982;5.928;2023-06-22T03:20:01;101771.25;;;19.18;69.71
66945;BME280;53853;51.982;5.928;2023-06-22T03:22:35;101774.78;;;19.18;69.99
66945;BME280;53853;51.982;5.928;2023-06-22T03:25:07;101773.75;;;19.19;70.42
66945;BME280;53853;51.982;5.928;2023-06-22T03:27:42;101767.31;;;19.21;70.01
66945;BME280;53853;51.982;5.928;2023-06-22T03:30:13;101765.47;;;19.21;70.25
66945;BME280;53853;51.982;5.928;2023-06-22T03:32:45;101754.47;;;19.23;69.95
66945;BME280;53853;51.982;5.928;2023-06-22T03:35:16;101749.06;;;19.23;70.41
66945;BME280;53853;51.982;5.928;2023-06-22T03:37:47;101760.91;;;19.22;70.86
66945;BME280;53853;51.982;5.928;2023-06-22T03:40:17;101758.38;;;19.20;70.70
66945;BME280;53853;51.982;5.928;2023-06-22T03:42:47;101750.47;;;19.18;70.95
66945;BME280;53853;51.982;5.928;2023-06-22T03:45:17;101753.81;;;19.21;71.01
66945;BME280;53853;51.982;5.928;2023-06-22T03:47:50;101752.50;;;19.16;70.85
66945;BME280;53853;51.982;5.928;2023-06-22T03:50:20;101770.41;;;19.17;71.29
66945;BME280;53853;51.982;5.928;2023-06-22T03:52:50;101760.63;;;19.16;71.51
66945;BME280;53853;51.982;5.928;2023-06-22T03:55:20;101756.41;;;19.14;71.39
66945;BME280;53853;51.982;5.928;2023-06-22T03:57:50;101748.50;;;19.12;71.28
66945;BME280;53853;51.982;5.928;2023-06-22T04:00:23;101753.72;;;19.14;71.57
66945;BME280;53853;51.982;5.928;2023-06-22T04:02:56;101753.72;;;19.14;71.62
66945;BME280;53853;51.982;5.928;2023-06-22T04:05:26;101745.78;;;19.12;72.09
66945;BME280;53853;51.982;5.928;2023-06-22T04:07:56;101745.97;;;19.11;72.48
66945;BME280;53853;51.982;5.928;2023-06-22T04:10:25;101748.66;;;19.11;72.30
66945;BME280;53853;51.982;5.928;2023-06-22T04:12:55;101751.56;;;19.09;72.45
66945;BME280;53853;51.982;5.928;2023-06-22T04:15:25;101747.00;;;19.10;72.83
66945;BME280;53853;51.982;5.928;2023-06-22T04:17:58;101754.06;;;19.11;72.88
66945;BME280;53853;51.982;5.928;2023-06-22T04:20:28;101748.50;;;19.12;72.82
66945;BME280;53853;51.982;5.928;2023-06-22T04:22:58;101755.56;;;19.13;72.86
66945;BME280;53853;51.982;5.928;2023-06-22T04:25:28;101753.34;;;19.17;72.80
66945;BME280;53853;51.982;5.928;2023-06-22T04:27:58;101757.38;;;19.21;72.75
66945;BME280;53853;51.982;5.928;2023-06-22T04:30:30;101750.09;;;19.22;73.09
66945;BME280;53853;51.982;5.928;2023-06-22T04:33:03;101746.00;;;19.26;73.46
66945;BME280;53853;51.982;5.928;2023-06-22T04:35:32;101751.03;;;19.29;73.19
66945;BME280;53853;51.982;5.928;2023-06-22T04:38:02;101746.66;;;19.28;73.78
66945;BME280;53853;51.982;5.928;2023-06-22T04:40:32;101753.06;;;19.27;74.04
66945;BME280;53853;51.982;5.928;2023-06-22T04:43:02;101740.78;;;19.24;74.34
66945;BME280;53853;51.982;5.928;2023-06-22T04:45:33;101745.63;;;19.29;74.43
66945;BME280;53853;51.982;5.928;2023-06-22T04:48:07;101742.75;;;19.30;74.77
66945;BME280;53853;51.982;5.928;2023-06-22T04:50:42;101745.91;;;19.34;74.69
66945;BME280;53853;51.982;5.928;2023-06-22T04:53:12;101746.19;;;19.39;74.88
66945;BME280;53853;51.982;5.928;2023-06-22T04:55:42;101744.13;;;19.41;74.46
66945;BME280;53853;51.982;5.928;2023-06-22T04:58:12;101743.56;;;19.46;74.43
66945;BME280;53853;51.982;5.928;2023-06-22T05:00:42;101748.41;;;19.50;74.87
66945;BME280;53853;51.982;5.928;2023-06-22T05:03:15;101738.72;;;19.56;74.58
66945;BME280;53853;51.982;5.928;2023-06-22T05:05:45;101739.00;;;19.61;74.33
66945;BME280;53853;51.982;5.928;2023-06-22T05:08:15;101741.16;;;19.66;74.31
66945;BME280;53853;51.982;5.928;2023-06-22T05:10:45;101742.28;;;19.71;74.31
66945;BME280;53853;51.982;5.928;2023-06-22T05:13:15;101733.22;;;19.79;73.80
66945;BME280;53853;51.982;5.928;2023-06-22T05:15:45;101738.72;;;19.86;73.61
66945;BME280;53853;51.982;5.928;2023-06-22T05:18:18;101751.28;;;19.94;73.29
66945;BME280;53853;51.982;5.928;2023-06-22T05:20:51;101747.00;;;19.99;72.99
66945;BME280;53853;51.982;5.928;2023-06-22T05:23:21;101742.03;;;20.03;73.01
66945;BME280;53853;51.982;5.928;2023-06-22T05:25:51;101742.78;;;20.12;72.55
66945;BME280;53853;51.982;5.928;2023-06-22T05:28:24;101736.78;;;20.16;72.59
66945;BME280;53853;51.982;5.928;2023-06-22T05:30:54;101737.22;;;20.20;71.59
66945;BME280;53853;51.982;5.928;2023-06-22T05:33:27;101735.63;;;20.25;71.55
66945;BME280;53853;51.982;5.928;2023-06-22T05:35:56;101742.78;;;20.33;71.50
66945;BME280;53853;51.982;5.928;2023-06-22T05:38:26;101740.16;;;20.40;71.15
66945;BME280;53853;51.982;5.928;2023-06-22T05:40:56;101742.53;;;20.50;71.30
66945;BME280;53853;51.982;5.928;2023-06-22T05:43:26;101759.94;;;20.62;71.13
66945;BME280;53853;51.982;5.928;2023-06-22T05:45:56;101758.59;;;20.73;70.79
66945;BME280;53853;51.982;5.928;2023-06-22T05:48:29;101755.78;;;20.81;70.31
66945;BME280;53853;51.982;5.928;2023-06-22T05:50:59;101751.66;;;20.92;69.92
66945;BME280;53853;51.982;5.928;2023-06-22T05:53:29;101758.44;;;21.03;69.48
66945;BME280;53853;51.982;5.928;2023-06-22T05:56:02;101756.03;;;21.14;69.27
66945;BME280;53853;51.982;5.928;2023-06-22T05:58:32;101751.91;;;21.25;69.18
66945;BME280;53853;51.982;5.928;2023-06-22T06:01:02;101753.44;;;21.34;68.87
66945;BME280;53853;51.982;5.928;2023-06-22T06:03:34;101751.41;;;21.43;69.00
66945;BME280;53853;51.982;5.928;2023-06-22T06:06:08;101755.00;;;21.50;68.79
66945;BME280;53853;51.982;5.928;2023-06-22T06:08:37;101753.59;;;21.55;67.54
66945;BME280;53853;51.982;5.928;2023-06-22T06:11:07;101751.75;;;21.62;67.12
66945;BME280;53853;51.982;5.928;2023-06-22T06:13:37;101743.84;;;21.67;67.43
66945;BME280;53853;51.982;5.928;2023-06-22T06:16:07;101749.69;;;21.70;66.61
66945;BME280;53853;51.982;5.928;2023-06-22T06:18:40;101758.06;;;21.76;66.40
66945;BME280;53853;51.982;5.928;2023-06-22T06:21:09;101753.91;;;21.80;66.21
66945;BME280;53853;51.982;5.928;2023-06-22T06:23:39;101752.47;;;21.84;65.62
66945;BME280;53853;51.982;5.928;2023-06-22T06:26:09;101758.34;;;21.87;66.01
66945;BME280;53853;51.982;5.928;2023-06-22T06:28:39;101750.22;;;21.94;66.33
66945;BME280;53853;51.982;5.928;2023-06-22T06:31:09;101742.09;;;22.01;66.01
66945;BME280;53853;51.982;5.928;2023-06-22T06:33:46;101741.28;;;22.07;66.38
66945;BME280;53853;51.982;5.928;2023-06-22T06:36:16;101741.50;;;22.12;65.51
66945;BME280;53853;51.982;5.928;2023-06-22T06:38:46;101732.75;;;22.17;65.72
66945;BME280;53853;51.982;5.928;2023-06-22T06:41:17;101742.78;;;22.23;65.14
66945;BME280;53853;51.982;5.928;2023-06-22T06:43:47;101733.19;;;22.27;65.01
66945;BME280;53853;51.982;5.928;2023-06-22T06:46:18;101738.66;;;22.34;64.71
66945;BME280;53853;51.982;5.928;2023-06-22T06:48:51;101733.22;;;22.40;64.11
66945;BME280;53853;51.982;5.928;2023-06-22T06:51:21;101726.34;;;22.45;63.70
66945;BME280;53853;51.982;5.928;2023-06-22T06:53:51;101729.28;;;22.50;64.13
66945;BME280;53853;51.982;5.928;2023-06-22T06:56:21;101735.53;;;22.57;64.73
66945;BME280;53853;51.982;5.928;2023-06-22T06:58:51;101724.50;;;22.65;65.32
66945;BME280;53853;51.982;5.928;2023-06-22T07:01:21;101725.09;;;22.74;65.35
66945;BME280;53853;51.982;5.928;2023-06-22T07:03:53;101722.81;;;22.84;65.08
66945;BME280;53853;51.982;5.928;2023-06-22T07:06:23;101724.47;;;22.92;63.50
66945;BME280;53853;51.982;5.928;2023-06-22T07:08:56;101725.50;;;22.97;63.95
66945;BME280;53853;51.982;5.928;2023-06-22T07:11:26;101715.25;;;23.00;63.65
66945;BME280;53853;51.982;5.928;2023-06-22T07:13:56;101717.34;;;23.04;63.74
66945;BME280;53853;51.982;5.928;2023-06-22T07:16:27;101715.91;;;23.08;64.03
66945;BME280;53853;51.982;5.928;2023-06-22T07:19:01;101715.47;;;23.11;64.19
66945;BME280;53853;51.982;5.928;2023-06-22T07:21:30;101710.03;;;23.18;62.44
66945;BME280;53853;51.982;5.928;2023-06-22T07:24:00;101706.88;;;23.28;63.05
66945;BME280;53853;51.982;5.928;2023-06-22T07:26:32;101709.34;;;23.36;62.74
66945;BME280;53853;51.982;5.928;2023-06-22T07:29:02;101706.19;;;23.46;62.09
66945;BME280;53853;51.982;5.928;2023-06-22T07:31:32;101701.34;;;23.55;61.61
66945;BME280;53853;51.982;5.928;2023-06-22T07:34:05;101695.84;;;23.61;61.97
66945;BME280;53853;51.982;5.928;2023-06-22T07:36:35;101695.00;;;23.67;61.95
66945;BME280;53853;51.982;5.928;2023-06-22T07:39:05;101693.31;;;23.73;61.40
66945;BME280;53853;51.982;5.928;2023-06-22T07:41:35;101691.38;;;23.80;61.75
66945;BME280;53853;51.982;5.928;2023-06-22T07:44:05;101690.72;;;23.92;62.36
66945;BME280;53853;51.982;5.928;2023-06-22T07:46:35;101692.13;;;24.01;61.43
66945;BME280;53853;51.982;5.928;2023-06-22T07:49:07;101683.47;;;24.11;61.25
66945;BME280;53853;51.982;5.928;2023-06-22T07:51:37;101678.00;;;24.17;60.22
66945;BME280;53853;51.982;5.928;2023-06-22T07:54:08;101678.78;;;24.24;60.45
66945;BME280;53853;51.982;5.928;2023-06-22T07:56:38;101683.94;;;24.33;59.99
66945;BME280;53853;51.982;5.928;2023-06-22T07:59:08;101687.25;;;24.41;59.68
66945;BME280;53853;51.982;5.928;2023-06-22T08:01:38;101682.34;;;24.50;59.56
66945;BME280;53853;51.982;5.928;2023-06-22T08:04:10;101682.13;;;24.58;59.56
66945;BME280;53853;51.982;5.928;2023-06-22T08:06:41;101679.09;;;24.67;58.66
66945;BME280;53853;51.982;5.928;2023-06-22T08:09:11;101674.63;;;24.72;59.15
66945;BME280;53853;51.982;5.928;2023-06-22T08:11:41;101673.28;;;24.82;59.06
66945;BME280;53853;51.982;5.928;2023-06-22T08:14:10;101672.41;;;24.88;58.88
66945;BME280;53853;51.982;5.928;2023-06-22T08:16:41;101659.78;;;24.93;59.43
66945;BME280;53853;51.982;5.928;2023-06-22T08:19:14;101662.19;;;25.02;60.05
66945;BME280;53853;51.982;5.928;2023-06-22T08:21:44;101659.75;;;25.12;60.21
66945;BME280;53853;51.982;5.928;2023-06-22T08:24:14;101654.00;;;25.20;60.21
66945;BME280;53853;51.982;5.928;2023-06-22T08:26:44;101648.06;;;25.30;60.34
66945;BME280;53853;51.982;5.928;2023-06-22T08:29:14;101640.38;;;25.39;59.07
66945;BME280;53853;51.982;5.928;2023-06-22T08:31:44;101633.41;;;25.43;58.42
66945;BME280;53853;51.982;5.928;2023-06-22T08:34:16;101625.00;;;25.44;55.83
66945;BME280;53853;51.982;5.928;2023-06-22T08:36:48;101616.41;;;25.41;54.75
66945;BME280;53853;51.982;5.928;2023-06-22T08:39:19;101620.38;;;25.45;55.20
66945;BME280;53853;51.982;5.928;2023-06-22T08:41:49;101628.84;;;25.55;54.62
66945;BME280;53853;51.982;5.928;2023-06-22T08:44:20;101621.16;;;25.64;54.72
66945;BME280;53853;51.982;5.928;2023-06-22T08:46:49;101633.66;;;25.72;55.02
66945;BME280;53853;51.982;5.928;2023-06-22T08:49:22;101620.72;;;25.79;56.11
66945;BME280;53853;51.982;5.928;2023-06-22T08:51:52;101632.16;;;25.88;56.33
66945;BME280;53853;51.982;5.928;2023-06-22T08:54:23;101626.16;;;25.97;56.27
66945;BME280;53853;51.982;5.928;2023-06-22T08:56:53;101625.00;;;26.05;55.94
66945;BME280;53853;51.982;5.928;2023-06-22T08:59:23;101631.44;;;26.11;55.91
66945;BME280;53853;51.982;5.928;2023-06-22T09:01:53;101631.78;;;26.14;53.66
66945;BME280;53853;51.982;5.928;2023-06-22T09:04:26;101623.81;;;26.13;52.18
66945;BME280;53853;51.982;5.928;2023-06-22T09:06:55;101625.97;;;26.11;51.72
66945;BME280;53853;51.982;5.928;2023-06-22T09:09:25;101621.09;;;26.13;50.37
66945;BME280;53853;51.982;5.928;2023-06-22T09:11:55;101620.63;;;26.16;51.20
66945;BME280;53853;51.982;5.928;2023-06-22T09:14:25;101620.03;;;26.26;52.03
66945;BME280;53853;51.982;5.928;2023-06-22T09:16:55;101621.81;;;26.32;51.37
66945;BME280;53853;51.982;5.928;2023-06-22T09:19:27;101624.94;;;26.47;51.15
66945;BME280;53853;51.982;5.928;2023-06-22T09:21:57;101622.41;;;26.57;50.89
66945;BME280;53853;51.982;5.928;2023-06-22T09:24:27;101612.81;;;26.67;51.37
66945;BME280;53853;51.982;5.928;2023-06-22T09:26:56;101611.88;;;26.73;48.59
66945;BME280;53853;51.982;5.928;2023-06-22T09:29:26;101614.38;;;26.74;47.94
66945;BME280;53853;51.982;5.928;2023-06-22T09:31:56;101613.16;;;26.70;47.51
66945;BME280;53853;51.982;5.928;2023-06-22T09:34:29;101606.41;;;26.73;46.90
66945;BME280;53853;51.982;5.928;2023-06-22T09:36:58;101602.34;;;26.75;48.03
66945;BME280;53853;51.982;5.928;2023-06-22T09:39:29;101606.28;;;26.80;47.70
66945;BME280;53853;51.982;5.928;2023-06-22T09:41:59;101595.31;;;26.80;46.35
66945;BME280;53853;51.982;5.928;2023-06-22T09:44:29;101597.00;;;26.81;47.37
66945;BME280;53853;51.982;5.928;2023-06-22T09:46:59;101600.78;;;26.80;47.28
66945;BME280;53853;51.982;5.928;2023-06-22T09:49:31;101605.78;;;26.83;47.01
66945;BME280;53853;51.982;5.928;2023-06-22T09:52:01;101610.91;;;26.79;47.47
66945;BME280;53853;51.982;5.928;2023-06-22T09:54:31;101606.75;;;26.77;46.64
66945;BME280;53853;51.982;5.928;2023-06-22T09:57:01;101599.38;;;26.77;46.01
66945;BME280;53853;51.982;5.928;2023-06-22T09:59:31;101592.00;;;26.78;46.85
66945;BME280;53853;51.982;5.928;2023-06-22T10:02:01;101598.53;;;26.77;47.16
66945;BME280;53853;51.982;5.928;2023-06-22T10:04:34;101597.97;;;26.74;46.62
66945;BME280;53853;51.982;5.928;2023-06-22T10:07:04;101605.19;;;26.69;46.69
66945;BME280;53853;51.982;5.928;2023-06-22T10:09:34;101607.44;;;26.60;47.13
66945;BME280;53853;51.982;5.928;2023-06-22T10:12:05;101602.94;;;26.54;47.45
66945;BME280;53853;51.982;5.928;2023-06-22T10:14:35;101609.34;;;26.48;47.47
66945;BME280;53853;51.982;5.928;2023-06-22T10:17:05;101605.41;;;26.44;47.71
66945;BME280;53853;51.982;5.928;2023-06-22T10:19:38;101598.16;;;26.37;48.05
66945;BME280;53853;51.982;5.928;2023-06-22T10:22:08;101595.31;;;26.32;47.15
66945;BME280;53853;51.982;5.928;2023-06-22T10:24:38;101588.31;;;26.25;47.04
66945;BME280;53853;51.982;5.928;2023-06-22T10:27:11;101582.13;;;26.17;46.26
66945;BME280;53853;51.982;5.928;2023-06-22T10:29:42;101584.13;;;26.10;47.36
66945;BME280;53853;51.982;5.928;2023-06-22T10:32:12;101583.53;;;26.08;47.91
66945;BME280;53853;51.982;5.928;2023-06-22T10:34:44;101590.69;;;26.09;48.42
66945;BME280;53853;51.982;5.928;2023-06-22T10:37:14;101589.34;;;26.12;48.32
66945;BME280;53853;51.982;5.928;2023-06-22T10:39:44;101582.38;;;26.16;48.20
66945;BME280;53853;51.982;5.928;2023-06-22T10:42:14;101582.94;;;26.18;47.86
66945;BME280;53853;51.982;5.928;2023-06-22T10:44:44;101580.81;;;26.20;48.26
66945;BME280;53853;51.982;5.928;2023-06-22T10:47:14;101582.47;;;26.21;48.08
66945;BME280;53853;51.982;5.928;2023-06-22T10:49:47;101585.22;;;26.21;47.80
66945;BME280;53853;51.982;5.928;2023-06-22T10:52:16;101584.16;;;26.22;48.25
66945;BME280;53853;51.982;5.928;2023-06-22T10:54:46;101584.75;;;26.24;49.02
66945;BME280;53853;51.982;5.928;2023-06-22T10:57:16;101586.19;;;26.27;48.21
66945;BME280;53853;51.982;5.928;2023-06-22T10:59:46;101579.88;;;26.26;48.42
66945;BME280;53853;51.982;5.928;2023-06-22T11:02:16;101580.34;;;26.23;48.36
66945;BME280;53853;51.982;5.928;2023-06-22T11:04:48;101574.63;;;26.25;48.16
66945;BME280;53853;51.982;5.928;2023-06-22T11:07:18;101571.91;;;26.25;47.50
66945;BME280;53853;51.982;5.928;2023-06-22T11:09:48;101572.03;;;26.18;47.29
66945;BME280;53853;51.982;5.928;2023-06-22T11:12:18;101568.72;;;26.16;47.94
66945;BME280;53853;51.982;5.928;2023-06-22T11:14:48;101569.78;;;26.15;49.06
66945;BME280;53853;51.982;5.928;2023-06-22T11:17:19;101568.47;;;26.17;48.83
66945;BME280;53853;51.982;5.928;2023-06-22T11:19:51;101561.81;;;26.13;48.07
66945;BME280;53853;51.982;5.928;2023-06-22T11:22:21;101566.91;;;26.10;48.20
66945;BME280;53853;51.982;5.928;2023-06-22T11:24:51;101567.16;;;26.08;48.64
66945;BME280;53853;51.982;5.928;2023-06-22T11:27:21;101568.44;;;26.06;49.06
66945;BME280;53853;51.982;5.928;2023-06-22T11:29:51;101573.31;;;26.03;49.54
66945;BME280;53853;51.982;5.928;2023-06-22T11:32:20;101571.97;;;25.94;50.78
66945;BME280;53853;51.982;5.928;2023-06-22T11:34:53;101567.91;;;25.85;52.26
66945;BME280;53853;51.982;5.928;2023-06-22T11:37:23;101570.16;;;25.76;52.89
66945;BME280;53853;51.982;5.928;2023-06-22T11:39:53;101570.56;;;25.61;52.45
66945;BME280;53853;51.982;5.928;2023-06-22T11:42:23;101577.28;;;25.47;52.79
66945;BME280;53853;51.982;5.928;2023-06-22T11:44:55;101577.50;;;25.34;52.96
66945;BME280;53853;51.982;5.928;2023-06-22T11:47:25;101570.75;;;25.18;52.71
66945;BME280;53853;51.982;5.928;2023-06-22T11:49:57;101576.34;;;25.04;53.28
66945;BME280;53853;51.982;5.928;2023-06-22T11:52:27;101583.19;;;24.95;54.27
66945;BME280;53853;51.982;5.928;2023-06-22T11:54:57;101583.09;;;24.83;55.29
66945;BME280;53853;51.982;5.928;2023-06-22T11:57:26;101586.81;;;24.70;56.64
66945;BME280;53853;51.982;5.928;2023-06-22T11:59:56;101582.97;;;24.53;57.37
66945;BME280;53853;51.982;5.928;2023-06-22T12:02:26;101579.00;;;24.30;59.15
66945;BME280;53853;51.982;5.928;2023-06-22T12:04:59;101575.50;;;23.98;60.94
66945;BME280;53853;51.982;5.928;2023-06-22T12:07:31;101567.31;;;23.66;62.64
66945;BME280;53853;51.982;5.928;2023-06-22T12:10:02;101567.69;;;23.44;62.82
66945;BME280;53853;51.982;5.928;2023-06-22T12:12:32;101565.00;;;23.31;64.23
66945;BME280;53853;51.982;5.928;2023-06-22T12:15:02;101572.22;;;23.12;64.67
66945;BME280;53853;51.982;5.928;2023-06-22T12:23:50;101571.28;;;22.66;68.41
66945;BME280;53853;51.982;5.928;2023-06-22T12:26:33;101572.56;;;22.50;69.75
66945;BME280;53853;51.982;5.928;2023-06-22T12:29:03;101579.69;;;22.38;72.01
66945;BME280;53853;51.982;5.928;2023-06-22T12:31:32;101578.03;;;22.30;73.51
66945;BME280;53853;51.982;5.928;2023-06-22T12:34:02;101574.44;;;22.23;73.32
66945;BME280;53853;51.982;5.928;2023-06-22T12:36:35;101576.34;;;22.16;74.42
66945;BME280;53853;51.982;5.928;2023-06-22T12:39:05;101573.81;;;22.07;74.71
66945;BME280;53853;51.982;5.928;2023-06-22T12:41:34;101577.13;;;22.03;75.56
66945;BME280;53853;51.982;5.928;2023-06-22T12:44:04;101566.50;;;21.95;75.83
66945;BME280;53853;51.982;5.928;2023-06-22T12:46:34;101555.66;;;21.88;75.38
66945;BME280;53853;51.982;5.928;2023-06-22T12:49:05;101550.84;;;21.83;75.62
66945;BME280;53853;51.982;5.928;2023-06-22T12:51:40;101552.31;;;21.79;76.50
66945;BME280;53853;51.982;5.928;2023-06-22T12:54:11;101542.69;;;21.77;76.41
66945;BME280;53853;51.982;5.928;2023-06-22T12:56:41;101528.94;;;21.71;78.30
66945;BME280;53853;51.982;5.928;2023-06-22T12:59:12;101517.63;;;21.68;78.09
66945;BME280;53853;51.982;5.928;2023-06-22T13:01:44;101507.41;;;21.63;78.69
66945;BME280;53853;51.982;5.928;2023-06-22T13:04:14;101504.28;;;21.60;80.06
66945;BME280;53853;51.982;5.928;2023-06-22T13:06:47;101496.34;;;21.51;79.81
66945;BME280;53853;51.982;5.928;2023-06-22T13:09:18;101504.44;;;21.45;79.95
66945;BME280;53853;51.982;5.928;2023-06-22T13:11:48;101513.41;;;21.39;80.24
66945;BME280;53853;51.982;5.928;2023-06-22T13:14:19;101509.00;;;21.38;80.84
66945;BME280;53853;51.982;5.928;2023-06-22T13:16:49;101512.13;;;21.34;80.94